createdAt,value
2022-09-12T00:00:15.794Z,6.10
2022-09-12T00:02:44.013Z,6.30
2022-09-12T00:05:10.993Z,5.40
2022-09-12T00:07:37.828Z,6.27
2022-09-12T00:10:05.635Z,6.73
2022-09-12T00:12:32.508Z,7.07
2022-09-12T00:14:59.356Z,6.73
2022-09-12T00:17:26.254Z,6.67
2022-09-12T00:19:55.825Z,7.10
2022-09-12T00:22:22.717Z,6.70
2022-09-12T00:24:49.539Z,6.60
2022-09-12T00:27:16.419Z,6.80
2022-09-12T00:29:43.372Z,6.27
2022-09-12T00:32:10.341Z,6.20
2022-09-12T00:34:37.371Z,6.30
2022-09-12T00:37:05.702Z,7.07
2022-09-12T00:39:32.542Z,6.47
2022-09-12T00:41:59.446Z,6.20
2022-09-12T00:44:48.532Z,6.67
2022-09-12T00:47:20.508Z,6.43
2022-09-12T00:49:51.970Z,6.73
2022-09-12T00:52:26.608Z,6.50
2022-09-12T00:54:57.761Z,6.40
2022-09-12T00:57:30.080Z,6.27
2022-09-12T00:59:59.364Z,6.27
2022-09-12T01:02:26.571Z,6.37
2022-09-12T01:04:53.510Z,6.77
2022-09-12T01:07:22.209Z,6.80
2022-09-12T01:09:49.467Z,6.67
2022-09-12T01:12:17.427Z,6.37
2022-09-12T01:14:44.349Z,6.00
2022-09-12T01:17:13.718Z,6.90
2022-09-12T01:20:12.590Z,6.00
2022-09-12T01:23:10.760Z,6.50
2022-09-12T01:25:53.113Z,6.90
2022-09-12T01:28:39.480Z,6.03
2022-09-12T01:31:11.627Z,5.70
2022-09-12T01:33:58.775Z,6.10
2022-09-12T01:36:49.518Z,6.37
2022-09-12T01:39:26.665Z,6.40
2022-09-12T01:42:01.367Z,6.10
2022-09-12T01:44:36.752Z,6.20
2022-09-12T01:47:09.363Z,6.13
2022-09-12T01:49:41.136Z,6.00
2022-09-12T01:52:12.809Z,5.87
2022-09-12T01:54:45.400Z,6.10
2022-09-12T01:57:18.658Z,5.97
2022-09-12T01:59:49.465Z,6.07
2022-09-12T02:02:24.089Z,6.33
2022-09-12T02:04:57.775Z,6.17
2022-09-12T02:07:30.999Z,5.53
2022-09-12T02:10:05.549Z,5.90
2022-09-12T02:12:39.181Z,6.40
2022-09-12T02:15:09.420Z,6.63
2022-09-12T02:17:41.152Z,6.57
2022-09-12T02:20:17.745Z,6.30
2022-09-12T02:23:00.320Z,5.83
2022-09-12T02:25:30.398Z,5.80
2022-09-12T02:28:01.570Z,5.70
2022-09-12T02:30:33.803Z,6.10
2022-09-12T02:33:06.723Z,6.33
2022-09-12T02:35:43.867Z,6.30
2022-09-12T02:38:17.567Z,6.30
2022-09-12T02:40:44.677Z,6.17
2022-09-12T02:43:11.568Z,6.27
2022-09-12T02:45:38.460Z,6.27
2022-09-12T02:48:13.558Z,6.67
2022-09-12T02:50:41.307Z,5.87
2022-09-12T02:53:09.402Z,6.53
2022-09-12T02:55:38.547Z,6.07
2022-09-12T02:58:08.251Z,6.30
2022-09-12T03:00:41.364Z,6.57
2022-09-12T03:03:25.399Z,6.23
2022-09-12T03:05:57.935Z,6.20
2022-09-12T03:09:01.903Z,6.97
2022-09-12T03:11:46.418Z,6.20
2022-09-12T03:14:26.537Z,6.60
2022-09-12T03:17:02.248Z,6.93
2022-09-12T03:19:41.930Z,6.93
2022-09-12T03:22:15.744Z,6.80
2022-09-12T03:24:48.534Z,6.60
2022-09-12T03:27:19.099Z,6.27
2022-09-12T03:29:47.927Z,6.50
2022-09-12T03:32:15.676Z,6.37
2022-09-12T03:34:43.924Z,6.60
2022-09-12T03:37:10.792Z,7.07
2022-09-12T03:39:37.781Z,6.63
2022-09-12T03:42:04.895Z,6.33
2022-09-12T03:44:31.750Z,6.43
2022-09-12T03:46:58.625Z,6.63
2022-09-12T03:49:25.429Z,7.00
2022-09-12T03:51:53.622Z,6.80
2022-09-12T03:54:20.481Z,6.67
2022-09-12T03:56:53.205Z,6.63
2022-09-12T03:59:20.528Z,7.03
2022-09-12T04:01:47.376Z,6.40
2022-09-12T04:04:14.203Z,6.80
2022-09-12T04:06:42.162Z,6.63
2022-09-12T04:09:10.372Z,6.17
2022-09-12T04:11:37.277Z,6.20
2022-09-12T04:14:04.121Z,6.73
2022-09-12T04:16:32.470Z,5.80
2022-09-12T04:18:59.481Z,6.33
2022-09-12T04:21:26.739Z,6.23
2022-09-12T04:23:53.520Z,6.33
2022-09-12T04:26:22.406Z,6.60
2022-09-12T04:28:53.687Z,5.90
2022-09-12T04:31:23.579Z,6.47
2022-09-12T04:33:54.341Z,5.80
2022-09-12T04:36:22.885Z,6.83
2022-09-12T04:38:50.215Z,6.20
2022-09-12T04:41:19.290Z,6.83
2022-09-12T04:43:48.428Z,6.40
2022-09-12T04:46:17.372Z,6.20
2022-09-12T04:48:44.281Z,6.33
2022-09-12T04:51:13.772Z,6.40
2022-09-12T04:53:40.951Z,7.83
2022-09-12T04:56:10.016Z,7.50
2022-09-12T04:58:37.996Z,7.40
2022-09-12T05:01:08.141Z,7.10
2022-09-12T05:03:35.707Z,7.23
2022-09-12T05:06:03.611Z,7.37
2022-09-12T05:08:30.671Z,7.07
2022-09-12T05:11:01.563Z,7.03
2022-09-12T05:13:28.573Z,7.00
2022-09-12T05:15:55.914Z,6.97
2022-09-12T05:18:24.397Z,6.13
2022-09-12T05:20:51.246Z,6.70
2022-09-12T05:23:18.137Z,6.97
2022-09-12T05:25:49.974Z,6.80
2022-09-12T05:28:17.060Z,6.83
2022-09-12T05:30:44.002Z,7.30
2022-09-12T05:33:11.087Z,7.00
2022-09-12T05:35:40.430Z,7.07
2022-09-12T05:38:07.476Z,7.60
2022-09-12T05:40:34.822Z,7.57
2022-09-12T05:43:01.730Z,7.60
2022-09-12T05:45:29.765Z,8.13
2022-09-12T05:47:56.669Z,7.67
2022-09-12T05:50:23.477Z,7.67
2022-09-12T05:52:51.712Z,8.63
2022-09-12T05:55:18.567Z,9.30
2022-09-12T05:57:48.168Z,8.17
2022-09-12T06:00:16.028Z,9.07
2022-09-12T06:02:44.140Z,8.37
2022-09-12T06:05:11.046Z,9.47
2022-09-12T06:07:38.084Z,9.57
2022-09-12T06:10:07.449Z,9.53
2022-09-12T06:12:34.314Z,9.17
2022-09-12T06:15:01.207Z,9.80
2022-09-12T06:17:28.100Z,10.70
2022-09-12T06:19:55.353Z,11.20
2022-09-12T06:22:22.224Z,11.50
2022-09-12T06:24:49.056Z,12.00
2022-09-12T06:27:17.295Z,12.90
2022-09-12T06:29:44.196Z,12.77
2022-09-12T06:32:11.599Z,12.27
2022-09-12T06:34:38.515Z,12.80
2022-09-12T06:37:05.481Z,12.93
2022-09-12T06:39:32.576Z,12.10
2022-09-12T06:41:59.486Z,11.27
2022-09-12T06:44:37.402Z,11.00
2022-09-12T06:47:04.494Z,10.90
2022-09-12T06:49:31.648Z,10.77
2022-09-12T06:51:58.559Z,10.00
2022-09-12T06:54:26.511Z,9.60
2022-09-12T06:56:53.427Z,9.93
2022-09-12T06:59:20.276Z,10.03
2022-09-12T07:01:48.595Z,9.47
2022-09-12T07:04:16.055Z,9.43
2022-09-12T07:06:44.579Z,9.30
2022-09-12T07:09:13.222Z,9.13
2022-09-12T07:11:41.968Z,9.07
2022-09-12T07:14:13.029Z,9.00
2022-09-12T07:16:40.124Z,8.33
2022-09-12T07:19:08.943Z,8.50
2022-09-12T07:21:39.843Z,8.90
2022-09-12T07:24:09.484Z,9.00
2022-09-12T07:26:36.702Z,9.23
2022-09-12T07:29:32.408Z,8.77
2022-09-12T07:31:51.974Z,8.70
2022-09-12T07:34:20.163Z,7.90
2022-09-12T07:36:46.989Z,7.83
2022-09-12T07:39:13.846Z,6.67
2022-09-12T07:41:40.698Z,6.20
2022-09-12T07:44:07.600Z,6.07
2022-09-12T07:46:35.202Z,5.90
2022-09-12T07:49:02.981Z,5.13
2022-09-12T07:51:31.890Z,4.93
2022-09-12T07:53:59.083Z,5.60
2022-09-12T07:56:30.204Z,5.67
2022-09-12T07:58:58.965Z,5.57
2022-09-12T08:01:26.602Z,4.40
2022-09-12T08:03:55.508Z,5.20
2022-09-12T08:06:26.380Z,4.80
2022-09-12T08:08:56.564Z,5.77
2022-09-12T08:11:25.074Z,4.87
2022-09-12T08:13:55.636Z,4.37
2022-09-12T08:16:25.449Z,5.00
2022-09-12T08:18:52.746Z,5.47
2022-09-12T08:21:21.672Z,5.20
2022-09-12T08:23:52.698Z,5.23
2022-09-12T08:26:21.338Z,4.60
2022-09-12T08:28:48.404Z,4.80
2022-09-12T08:31:18.456Z,3.70
2022-09-12T08:33:45.429Z,3.70
2022-09-12T08:36:13.873Z,3.40
2022-09-12T08:38:42.648Z,2.80
2022-09-12T08:41:14.199Z,2.70
2022-09-12T08:44:01.318Z,3.00
2022-09-12T08:46:35.866Z,2.60
2022-09-12T08:49:04.220Z,2.58
2022-09-12T08:51:33.134Z,2.60
2022-09-12T08:54:02.008Z,2.40
2022-09-12T08:56:32.671Z,2.35
2022-09-12T08:59:00.950Z,2.88
2022-09-12T09:01:32.621Z,2.33
2022-09-12T09:04:28.910Z,2.33
2022-09-12T09:07:28.893Z,2.15
2022-09-12T09:10:08.062Z,2.63
2022-09-12T09:12:46.575Z,1.90
2022-09-12T09:15:30.141Z,1.90
2022-09-12T09:18:01.803Z,1.70
2022-09-12T09:20:34.066Z,1.60
2022-09-12T09:23:06.209Z,1.50
2022-09-12T09:25:42.614Z,1.50
2022-09-12T09:28:16.320Z,1.60
2022-09-12T09:30:45.207Z,1.42
2022-09-12T09:33:21.480Z,1.58
2022-09-12T09:35:55.416Z,1.50
2022-09-12T09:38:33.474Z,1.30
2022-09-12T09:41:14.547Z,1.42
2022-09-12T09:43:41.632Z,1.40
2022-09-12T09:46:11.707Z,1.52
2022-09-12T09:48:42.074Z,1.63
2022-09-12T09:51:09.395Z,1.70
2022-09-12T09:53:41.698Z,1.48
2022-09-12T09:56:13.452Z,1.40
2022-09-12T09:58:41.013Z,1.35
2022-09-12T10:01:16.379Z,1.73
2022-09-12T10:03:50.184Z,2.00
2022-09-12T10:06:30.847Z,2.20
2022-09-12T10:09:07.711Z,1.70
2022-09-12T10:11:34.639Z,1.55
2022-09-12T10:14:01.588Z,1.50
2022-09-12T10:16:32.578Z,1.55
2022-09-12T10:19:01.575Z,1.50
2022-09-12T10:21:32.360Z,1.63
2022-09-12T10:24:06.416Z,1.38
2022-09-12T10:26:36.182Z,1.48
2022-09-12T10:29:11.491Z,1.70
2022-09-12T10:31:47.639Z,1.67
2022-09-12T10:34:25.767Z,1.70
2022-09-12T10:36:55.732Z,1.50
2022-09-12T10:39:22.995Z,1.50
2022-09-12T10:41:49.876Z,1.25
2022-09-12T10:44:18.891Z,1.40
2022-09-12T10:46:47.242Z,1.50
2022-09-12T10:49:26.653Z,1.40
2022-09-12T10:51:54.758Z,1.67
2022-09-12T10:54:24.858Z,1.40
2022-09-12T10:57:18.422Z,1.67
2022-09-12T11:00:10.944Z,1.60
2022-09-12T11:02:50.707Z,1.60
2022-09-12T11:05:32.139Z,1.63
2022-09-12T11:08:07.387Z,1.50
2022-09-12T11:10:43.824Z,1.63
2022-09-12T11:13:24.580Z,1.60
2022-09-12T11:16:05.179Z,1.48
2022-09-12T11:19:03.979Z,1.58
2022-09-12T11:21:45.030Z,1.50
2022-09-12T11:24:30.068Z,1.35
2022-09-12T11:27:10.720Z,1.52
2022-09-12T11:29:48.948Z,1.40
2022-09-12T11:32:47.443Z,1.30
2022-09-12T11:35:24.541Z,1.30
2022-09-12T11:38:27.629Z,1.25
2022-09-12T11:40:56.943Z,1.48
2022-09-12T11:43:33.119Z,1.63
2022-09-12T11:46:06.933Z,1.60
2022-09-12T11:48:42.728Z,1.40
2022-09-12T11:51:19.871Z,1.33
2022-09-12T11:53:58.357Z,1.25
2022-09-12T11:56:25.539Z,1.40
2022-09-12T11:58:57.391Z,1.20
2022-09-12T12:01:28.596Z,1.20
2022-09-12T12:03:57.032Z,1.15
2022-09-12T12:06:31.660Z,1.33
2022-09-12T12:08:58.870Z,1.17
2022-09-12T12:11:30.510Z,1.15
2022-09-12T12:14:00.580Z,1.23
2022-09-12T12:16:29.239Z,1.00
2022-09-12T12:18:58.240Z,1.20
2022-09-12T12:21:40.083Z,1.27
2022-09-12T12:24:17.984Z,1.30
2022-09-12T12:26:57.382Z,1.13
2022-09-12T12:29:44.197Z,1.10
2022-09-12T12:32:23.286Z,1.30
2022-09-12T12:34:50.215Z,0.90
2022-09-12T12:37:51.671Z,1.05
2022-09-12T12:40:25.193Z,1.02
2022-09-12T12:43:25.893Z,1.02
2022-09-12T12:46:08.865Z,0.90
2022-09-12T12:48:54.689Z,0.82
2022-09-12T12:51:54.845Z,1.05
2022-09-12T12:54:55.084Z,0.90
2022-09-12T12:57:48.470Z,1.00
2022-09-12T13:00:32.470Z,0.90
2022-09-12T13:03:02.549Z,1.02
2022-09-12T13:05:38.215Z,1.00
2022-09-12T13:08:10.140Z,1.00
2022-09-12T13:10:38.801Z,1.13
2022-09-12T13:13:08.709Z,0.95
2022-09-12T13:15:51.581Z,0.80
2022-09-12T13:18:25.383Z,1.00
2022-09-12T13:20:59.764Z,1.08
2022-09-12T13:23:28.658Z,0.80
2022-09-12T13:25:58.405Z,0.90
2022-09-12T13:28:26.764Z,1.00
2022-09-12T13:31:01.152Z,0.80
2022-09-12T13:33:36.343Z,0.85
2022-09-12T13:36:20.239Z,0.90
2022-09-12T13:39:19.710Z,0.77
2022-09-12T13:42:22.445Z,0.95
2022-09-12T13:44:52.745Z,0.98
2022-09-12T13:47:26.955Z,0.90
2022-09-12T13:49:55.252Z,0.90
2022-09-12T13:52:26.165Z,0.93
2022-09-12T13:54:56.448Z,1.00
2022-09-12T13:57:33.166Z,1.10
2022-09-12T14:00:02.775Z,1.00
2022-09-12T14:02:36.008Z,0.85
2022-09-12T14:05:13.589Z,0.90
2022-09-12T14:07:55.168Z,1.00
2022-09-12T14:10:30.170Z,0.98
2022-09-12T14:12:59.643Z,0.70
2022-09-12T14:15:31.096Z,1.02
2022-09-12T14:18:01.147Z,1.10
2022-09-12T14:20:32.558Z,1.20
2022-09-12T14:23:02.491Z,1.20
2022-09-12T14:25:36.860Z,1.27
2022-09-12T14:28:06.103Z,1.00
2022-09-12T14:30:36.527Z,1.10
2022-09-12T14:33:18.766Z,1.08
2022-09-12T14:35:49.495Z,1.30
2022-09-12T14:38:24.331Z,1.02
2022-09-12T14:40:58.448Z,1.20
2022-09-12T14:43:29.489Z,1.40
2022-09-12T14:45:59.732Z,1.20
2022-09-12T14:48:29.789Z,1.20
2022-09-12T14:50:56.911Z,1.30
2022-09-12T14:53:30.473Z,1.30
2022-09-12T14:56:05.154Z,1.07
2022-09-12T14:58:33.533Z,1.57
2022-09-12T15:01:02.451Z,1.00
2022-09-12T15:03:32.334Z,1.30
2022-09-12T15:06:00.552Z,1.20
2022-09-12T15:08:27.491Z,1.10
2022-09-12T15:10:55.009Z,1.47
2022-09-12T15:13:25.712Z,1.27
2022-09-12T15:15:55.704Z,1.30
2022-09-12T15:18:24.677Z,0.80
2022-09-12T15:20:54.876Z,1.17
2022-09-12T15:23:31.104Z,1.30
2022-09-12T15:25:58.029Z,1.27
2022-09-12T15:28:26.759Z,1.20
2022-09-12T15:30:56.522Z,1.20
2022-09-12T15:33:25.075Z,1.30
2022-09-12T15:35:52.674Z,1.30
2022-09-12T15:38:24.288Z,1.10
2022-09-12T15:40:53.742Z,1.20
2022-09-12T15:43:21.351Z,1.20
2022-09-12T15:45:50.479Z,1.33
2022-09-12T15:48:19.055Z,1.23
2022-09-12T15:50:46.315Z,1.20
2022-09-12T15:53:16.101Z,2.40
2022-09-12T15:55:43.628Z,1.10
2022-09-12T15:58:11.042Z,1.30
2022-09-12T16:00:38.049Z,1.00
2022-09-12T16:03:05.204Z,1.03
2022-09-12T16:05:33.604Z,1.20
2022-09-12T16:08:00.468Z,1.10
2022-09-12T16:10:30.210Z,1.20
2022-09-12T16:12:57.949Z,1.10
2022-09-12T16:15:26.298Z,1.20
2022-09-12T16:17:53.744Z,1.10
2022-09-12T16:20:21.086Z,1.20
2022-09-12T16:22:49.360Z,1.30
2022-09-12T16:25:17.251Z,1.30
2022-09-12T16:27:44.392Z,1.17
2022-09-12T16:30:11.985Z,1.10
2022-09-12T16:32:38.948Z,1.13
2022-09-12T16:35:07.397Z,1.40
2022-09-12T16:37:34.649Z,1.20
2022-09-12T16:40:04.756Z,1.40
2022-09-12T16:42:31.722Z,1.20
2022-09-12T16:44:58.606Z,1.20
2022-09-12T16:47:25.473Z,1.20
2022-09-12T16:49:52.372Z,1.10
2022-09-12T16:52:19.293Z,1.30
2022-09-12T16:54:46.490Z,1.30
2022-09-12T16:57:14.754Z,1.10
2022-09-12T16:59:41.678Z,1.10
2022-09-12T17:02:12.030Z,1.17
2022-09-12T17:04:38.988Z,1.20
2022-09-12T17:07:06.151Z,1.30
2022-09-12T17:09:33.083Z,1.17
2022-09-12T17:12:00.682Z,1.20
2022-09-12T17:14:29.086Z,1.10
2022-09-12T17:16:56.080Z,1.10
2022-09-12T17:19:32.316Z,1.10
2022-09-12T17:21:59.177Z,1.30
2022-09-12T17:24:26.769Z,1.10
2022-09-12T17:26:54.073Z,1.10
2022-09-12T17:29:21.288Z,1.60
2022-09-12T17:31:49.512Z,1.27
2022-09-12T17:34:18.850Z,1.30
2022-09-12T17:36:46.173Z,1.20
2022-09-12T17:39:14.077Z,1.30
2022-09-12T17:41:43.029Z,1.03
2022-09-12T17:44:12.442Z,1.23
2022-09-12T17:46:40.348Z,1.10
2022-09-12T17:49:12.054Z,1.33
2022-09-12T17:51:40.423Z,1.10
2022-09-12T17:54:11.806Z,1.30
2022-09-12T17:56:40.732Z,1.53
2022-09-12T17:59:11.014Z,2.00
2022-09-12T18:01:56.668Z,1.80
2022-09-12T18:04:27.638Z,1.50
2022-09-12T18:06:55.322Z,1.40
2022-09-12T18:09:25.029Z,1.30
2022-09-12T18:11:52.768Z,2.00
2022-09-12T18:14:20.301Z,2.27
2022-09-12T18:16:49.893Z,1.60
2022-09-12T18:19:18.883Z,1.63
2022-09-12T18:21:47.146Z,1.70
2022-09-12T18:24:14.221Z,1.60
2022-09-12T18:26:43.512Z,1.70
2022-09-12T18:29:10.694Z,2.53
2022-09-12T18:31:38.629Z,1.90
2022-09-12T18:34:07.757Z,1.70
2022-09-12T18:36:34.607Z,1.50
2022-09-12T18:39:02.815Z,1.40
2022-09-12T18:41:29.826Z,1.70
2022-09-12T18:43:59.887Z,1.50
2022-09-12T18:46:28.294Z,1.60
2022-09-12T18:49:00.073Z,1.70
2022-09-12T18:51:31.649Z,1.57
2022-09-12T18:54:00.807Z,1.60
2022-09-12T18:56:34.394Z,1.70
2022-09-12T18:59:02.812Z,2.13
2022-09-12T19:01:31.164Z,2.23
2022-09-12T19:03:59.021Z,2.50
2022-09-12T19:06:27.886Z,2.20
2022-09-12T19:08:55.628Z,2.43
2022-09-12T19:11:23.589Z,2.00
2022-09-12T19:13:53.407Z,1.93
2022-09-12T19:16:21.974Z,2.00
2022-09-12T19:18:49.882Z,2.40
2022-09-12T19:21:18.369Z,2.07
2022-09-12T19:23:45.613Z,2.43
2022-09-12T19:26:15.905Z,2.30
2022-09-12T19:28:45.433Z,2.30
2022-09-12T19:31:15.626Z,1.90
2022-09-12T19:33:42.765Z,1.80
2022-09-12T19:36:27.592Z,1.80
2022-09-12T19:39:00.085Z,2.10
2022-09-12T19:41:27.552Z,2.20
2022-09-12T19:43:55.407Z,2.30
2022-09-12T19:46:26.926Z,2.00
2022-09-12T19:48:55.887Z,2.00
2022-09-12T19:51:24.106Z,1.90
2022-09-12T19:53:52.908Z,2.00
2022-09-12T19:56:20.190Z,2.17
2022-09-12T19:58:52.051Z,2.20
2022-09-12T20:01:25.654Z,2.00
2022-09-12T20:03:56.256Z,2.43
2022-09-12T20:06:23.358Z,2.10
2022-09-12T20:08:50.367Z,2.23
2022-09-12T20:11:19.301Z,2.17
2022-09-12T20:13:47.933Z,2.20
2022-09-12T20:16:21.263Z,2.60
2022-09-12T20:18:53.979Z,2.50
2022-09-12T20:21:25.291Z,2.30
2022-09-12T20:23:52.373Z,2.50
2022-09-12T20:26:20.716Z,2.30
2022-09-12T20:28:47.601Z,2.50
2022-09-12T20:31:16.023Z,2.50
2022-09-12T20:33:43.249Z,2.80
2022-09-12T20:36:15.417Z,2.57
2022-09-12T20:38:46.841Z,2.03
2022-09-12T20:41:13.688Z,2.10
2022-09-12T20:43:40.934Z,2.30
2022-09-12T20:46:09.847Z,2.10
2022-09-12T20:48:36.955Z,2.43
2022-09-12T20:51:04.331Z,2.17
2022-09-12T20:53:35.164Z,2.20
2022-09-12T20:56:03.323Z,2.00
2022-09-12T20:58:30.219Z,2.07
2022-09-12T21:00:57.177Z,1.80
2022-09-12T21:03:25.463Z,1.80
2022-09-12T21:05:52.440Z,1.80
2022-09-12T21:08:19.338Z,2.00
2022-09-12T21:10:47.546Z,2.20
2022-09-12T21:13:15.626Z,1.90
2022-09-12T21:15:42.837Z,2.77
2022-09-12T21:18:09.747Z,2.40
2022-09-12T21:20:36.593Z,2.30
2022-09-12T21:23:03.558Z,2.30
2022-09-12T21:25:30.766Z,2.20
2022-09-12T21:27:59.056Z,1.60
2022-09-12T21:30:25.945Z,1.63
2022-09-12T21:32:53.183Z,1.60
2022-09-12T21:35:21.664Z,2.00
2022-09-12T21:37:50.953Z,1.70
2022-09-12T21:40:18.079Z,1.70
2022-09-12T21:42:45.005Z,1.60
2022-09-12T21:45:13.265Z,1.90
2022-09-12T21:47:40.188Z,1.70
2022-09-12T21:50:08.226Z,1.87
2022-09-12T21:52:35.939Z,1.63
2022-09-12T21:55:06.008Z,1.90
2022-09-12T21:57:32.958Z,1.70
2022-09-12T22:00:00.020Z,1.57
2022-09-12T22:02:28.560Z,1.70
2022-09-12T22:04:55.769Z,1.73
2022-09-12T22:07:23.112Z,1.90
2022-09-12T22:09:50.143Z,1.60
2022-09-12T22:12:17.967Z,1.47
2022-09-12T22:14:44.863Z,1.60
2022-09-12T22:17:12.794Z,1.50
2022-09-12T22:19:41.380Z,1.70
2022-09-12T22:22:27.115Z,1.40
2022-09-12T22:24:54.010Z,1.60
2022-09-12T22:27:20.861Z,1.70
2022-09-12T22:29:49.576Z,1.40
2022-09-12T22:32:17.152Z,1.90
2022-09-12T22:34:45.740Z,1.40
2022-09-12T22:37:12.882Z,1.50
2022-09-12T22:39:40.611Z,1.30
2022-09-12T22:42:09.680Z,1.77
2022-09-12T22:44:36.549Z,1.60
2022-09-12T22:47:03.622Z,2.10
2022-09-12T22:49:30.940Z,1.53
2022-09-12T22:51:59.284Z,1.47
2022-09-12T22:54:26.212Z,1.63
2022-09-12T22:56:53.039Z,1.70
2022-09-12T22:59:20.405Z,1.77
2022-09-12T23:01:47.310Z,1.60
2022-09-12T23:04:14.500Z,1.73
2022-09-12T23:06:41.354Z,1.63
2022-09-12T23:09:09.560Z,1.70
2022-09-12T23:11:36.894Z,1.70
2022-09-12T23:14:03.765Z,1.70
2022-09-12T23:16:32.197Z,1.80
2022-09-12T23:18:59.237Z,1.60
2022-09-12T23:21:26.137Z,1.60
2022-09-12T23:23:53.407Z,1.80
2022-09-12T23:26:24.047Z,1.60
2022-09-12T23:28:53.004Z,1.87
2022-09-12T23:31:20.569Z,1.90
2022-09-12T23:33:48.646Z,1.57
2022-09-12T23:36:15.690Z,1.80
2022-09-12T23:38:44.214Z,1.90
2022-09-12T23:41:12.703Z,1.63
2022-09-12T23:43:41.160Z,1.70
2022-09-12T23:46:08.096Z,1.70
2022-09-12T23:48:35.354Z,1.40
2022-09-12T23:51:02.311Z,1.50
2022-09-12T23:53:29.603Z,1.60
2022-09-12T23:55:56.879Z,1.60
2022-09-12T23:58:24.080Z,1.60
